createdAt,value
2022-08-31T00:01:37.433Z,43.38
2022-08-31T00:04:13.357Z,43.33
2022-08-31T00:06:58.227Z,43.23
2022-08-31T00:09:37.711Z,43.58
2022-08-31T00:12:11.475Z,43.49
2022-08-31T00:14:52.817Z,42.71
2022-08-31T00:17:34.304Z,43.04
2022-08-31T00:20:09.614Z,43.38
2022-08-31T00:23:10.360Z,43.74
2022-08-31T00:25:42.620Z,43.74
2022-08-31T00:28:20.888Z,43.68
2022-08-31T00:30:57.455Z,43.50
2022-08-31T00:33:32.616Z,43.59
2022-08-31T00:36:08.888Z,44.13
2022-08-31T00:38:41.415Z,43.88
2022-08-31T00:41:20.176Z,43.50
2022-08-31T00:44:00.829Z,43.67
2022-08-31T00:46:39.981Z,43.67
2022-08-31T00:49:21.934Z,43.78
2022-08-31T00:51:56.686Z,43.78
2022-08-31T00:54:42.750Z,43.55
2022-08-31T00:57:24.587Z,43.77
2022-08-31T01:00:15.439Z,43.74
2022-08-31T01:02:56.099Z,44.01
2022-08-31T01:05:29.504Z,43.83
2022-08-31T01:08:06.806Z,43.87
2022-08-31T01:10:43.952Z,43.83
2022-08-31T01:13:20.824Z,43.86
2022-08-31T01:16:06.392Z,43.96
2022-08-31T01:18:47.104Z,43.67
2022-08-31T01:21:41.510Z,43.60
2022-08-31T01:24:16.161Z,43.65
2022-08-31T01:26:55.515Z,43.79
2022-08-31T01:29:33.348Z,43.73
2022-08-31T01:32:09.070Z,44.20
2022-08-31T01:34:48.665Z,43.72
2022-08-31T01:37:29.167Z,43.71
2022-08-31T01:40:06.705Z,43.84
2022-08-31T01:42:40.825Z,44.07
2022-08-31T01:45:13.532Z,44.07
2022-08-31T01:47:47.789Z,43.90
2022-08-31T01:50:20.676Z,43.75
2022-08-31T01:52:53.251Z,43.96
2022-08-31T01:55:32.603Z,44.21
2022-08-31T01:58:11.091Z,44.72
2022-08-31T02:00:47.451Z,44.63
2022-08-31T02:03:26.653Z,44.94
2022-08-31T02:08:39.928Z,45.39
2022-08-31T02:11:14.870Z,45.48
2022-08-31T02:13:51.271Z,45.49
2022-08-31T02:16:25.515Z,45.44
2022-08-31T02:19:01.072Z,45.25
2022-08-31T02:21:37.400Z,45.41
2022-08-31T02:24:11.889Z,45.76
2022-08-31T02:26:51.655Z,45.63
2022-08-31T02:29:32.615Z,45.53
2022-08-31T02:32:19.600Z,45.56
2022-08-31T02:35:02.226Z,45.65
2022-08-31T02:37:33.721Z,45.72
2022-08-31T02:40:13.454Z,45.75
2022-08-31T02:42:53.212Z,45.41
2022-08-31T02:45:30.017Z,45.24
2022-08-31T02:48:13.332Z,45.49
2022-08-31T02:50:51.747Z,45.67
2022-08-31T02:53:24.851Z,45.58
2022-08-31T02:55:59.773Z,45.44
2022-08-31T02:58:39.860Z,45.51
2022-08-31T03:01:18.491Z,45.60
2022-08-31T03:03:52.976Z,45.32
2022-08-31T03:06:37.872Z,45.32
2022-08-31T03:09:19.360Z,45.24
2022-08-31T03:11:52.697Z,45.24
2022-08-31T03:14:29.510Z,45.38
2022-08-31T03:17:05.911Z,45.38
2022-08-31T03:19:44.813Z,45.00
2022-08-31T03:22:18.651Z,45.30
2022-08-31T03:24:59.911Z,45.40
2022-08-31T03:27:31.043Z,44.90
2022-08-31T03:30:08.531Z,45.03
2022-08-31T03:32:44.136Z,45.21
2022-08-31T03:35:18.934Z,45.22
2022-08-31T03:37:51.798Z,45.06
2022-08-31T03:40:37.248Z,44.65
2022-08-31T03:43:14.609Z,44.60
2022-08-31T03:45:46.190Z,44.94
2022-08-31T03:48:19.983Z,45.04
2022-08-31T03:50:53.274Z,44.93
2022-08-31T03:53:31.945Z,45.02
2022-08-31T03:56:10.463Z,44.63
2022-08-31T03:58:55.911Z,44.41
2022-08-31T04:01:49.244Z,44.64
2022-08-31T04:04:38.922Z,44.76
2022-08-31T04:07:57.133Z,44.64
2022-08-31T04:11:01.040Z,44.63
2022-08-31T04:13:36.340Z,44.54
2022-08-31T04:16:47.688Z,44.84
2022-08-31T04:19:41.343Z,44.89
2022-08-31T04:22:42.299Z,44.68
2022-08-31T04:25:50.248Z,44.43
2022-08-31T04:28:23.983Z,44.51
2022-08-31T04:30:54.930Z,44.65
2022-08-31T04:33:22.468Z,44.36
2022-08-31T04:35:50.453Z,44.73
2022-08-31T04:38:18.218Z,44.36
2022-08-31T04:40:46.747Z,44.57
2022-08-31T04:43:17.250Z,44.73
2022-08-31T04:45:45.912Z,44.93
2022-08-31T04:48:17.275Z,44.79
2022-08-31T04:50:50.808Z,44.98
2022-08-31T04:53:25.046Z,44.82
2022-08-31T04:55:52.946Z,44.84
2022-08-31T04:58:23.714Z,45.02
2022-08-31T05:00:56.434Z,44.75
2022-08-31T05:03:45.521Z,44.76
2022-08-31T05:06:16.803Z,44.80
2022-08-31T05:08:51.895Z,44.72
2022-08-31T05:11:25.057Z,44.27
2022-08-31T05:13:57.303Z,44.59
2022-08-31T05:16:25.579Z,44.24
2022-08-31T05:18:57.591Z,44.69
2022-08-31T05:21:30.875Z,44.67
2022-08-31T05:24:13.353Z,44.59
2022-08-31T05:26:48.346Z,44.40
2022-08-31T05:29:28.575Z,44.33
2022-08-31T05:32:23.035Z,44.13
2022-08-31T05:34:57.672Z,44.37
2022-08-31T05:37:34.595Z,44.74
2022-08-31T05:40:06.787Z,44.24
2022-08-31T05:42:35.069Z,44.51
2022-08-31T05:45:03.671Z,44.58
2022-08-31T05:47:33.718Z,44.92
2022-08-31T05:50:08.349Z,44.52
2022-08-31T05:52:41.324Z,44.18
2022-08-31T05:55:09.290Z,44.35
2022-08-31T05:57:40.346Z,44.14
2022-08-31T06:00:13.022Z,44.32
2022-08-31T06:02:43.950Z,44.09
2022-08-31T06:05:14.343Z,45.99
2022-08-31T06:07:47.378Z,46.45
2022-08-31T06:10:19.515Z,47.02
2022-08-31T06:12:53.205Z,47.55
2022-08-31T06:15:26.587Z,46.94
2022-08-31T06:17:56.982Z,46.63
2022-08-31T06:20:38.273Z,46.28
2022-08-31T06:23:07.930Z,47.57
2022-08-31T06:25:48.553Z,47.58
2022-08-31T06:28:16.417Z,47.50
2022-08-31T06:30:54.803Z,47.99
2022-08-31T06:33:24.945Z,47.99
2022-08-31T06:36:22.151Z,47.69
2022-08-31T06:39:26.708Z,48.71
2022-08-31T06:42:20.913Z,48.29
2022-08-31T06:45:19.167Z,48.32
2022-08-31T06:48:32.649Z,47.62
2022-08-31T06:51:07.329Z,46.33
2022-08-31T06:53:45.146Z,45.94
2022-08-31T06:56:40.169Z,45.43
2022-08-31T06:59:40.286Z,45.29
2022-08-31T07:02:40.387Z,45.37
2022-08-31T07:05:24.311Z,45.48
2022-08-31T07:07:58.225Z,45.87
2022-08-31T07:10:37.182Z,44.96
2022-08-31T07:13:13.771Z,44.68
2022-08-31T07:15:46.917Z,44.84
2022-08-31T07:18:26.713Z,45.30
2022-08-31T07:21:12.640Z,44.65
2022-08-31T07:23:53.208Z,45.26
2022-08-31T07:26:36.196Z,44.41
2022-08-31T07:29:19.053Z,44.52
2022-08-31T07:31:55.998Z,44.27
2022-08-31T07:34:29.093Z,44.03
2022-08-31T07:37:42.390Z,44.98
2022-08-31T07:40:37.687Z,44.44
2022-08-31T07:43:16.054Z,43.87
2022-08-31T07:45:51.487Z,43.65
2022-08-31T07:48:35.498Z,44.52
2022-08-31T07:51:15.249Z,44.04
2022-08-31T07:54:13.747Z,43.85
2022-08-31T07:57:01.629Z,43.82
2022-08-31T07:59:41.873Z,42.95
2022-08-31T08:02:18.309Z,43.33
2022-08-31T08:04:54.161Z,42.82
2022-08-31T08:07:57.834Z,42.81
2022-08-31T08:11:07.315Z,42.49
2022-08-31T08:13:54.717Z,42.41
2022-08-31T08:16:39.383Z,42.61
2022-08-31T08:19:24.945Z,42.25
2022-08-31T08:22:03.730Z,42.27
2022-08-31T08:24:48.071Z,42.07
2022-08-31T08:27:58.552Z,41.86
2022-08-31T08:30:47.307Z,42.05
2022-08-31T08:33:20.991Z,41.65
2022-08-31T08:36:05.394Z,41.46
2022-08-31T08:38:47.672Z,41.85
2022-08-31T08:41:24.025Z,42.06
2022-08-31T08:44:01.078Z,41.42
2022-08-31T08:46:54.913Z,42.58
2022-08-31T08:49:33.580Z,42.11
2022-08-31T08:52:23.321Z,42.36
2022-08-31T08:55:02.196Z,41.80
2022-08-31T08:57:56.371Z,41.48
2022-08-31T09:00:30.464Z,41.45
2022-08-31T09:03:09.719Z,41.79
2022-08-31T09:06:16.576Z,41.47
2022-08-31T09:09:00.511Z,41.12
2022-08-31T09:11:50.406Z,40.89
2022-08-31T09:14:48.344Z,40.98
2022-08-31T09:17:28.333Z,41.79
2022-08-31T09:20:12.317Z,41.72
2022-08-31T09:22:57.557Z,41.39
2022-08-31T09:25:45.533Z,40.56
2022-08-31T09:28:53.016Z,40.16
2022-08-31T09:31:38.030Z,40.17
2022-08-31T09:34:30.809Z,39.92
2022-08-31T09:37:20.198Z,39.69
2022-08-31T09:39:55.148Z,39.73
2022-08-31T09:42:37.441Z,39.40
2022-08-31T09:45:39.952Z,38.40
2022-08-31T09:48:19.980Z,39.00
2022-08-31T09:51:02.558Z,38.66
2022-08-31T09:54:04.384Z,38.92
2022-08-31T09:56:57.013Z,39.00
2022-08-31T09:59:53.212Z,39.28
2022-08-31T10:02:38.266Z,39.18
2022-08-31T10:05:30.301Z,39.21
2022-08-31T10:08:19.496Z,39.41
2022-08-31T10:10:58.886Z,39.57
2022-08-31T10:14:00.500Z,39.06
2022-08-31T10:16:48.433Z,39.03
2022-08-31T10:19:50.112Z,39.34
2022-08-31T10:22:46.472Z,37.83
2022-08-31T10:25:47.003Z,37.27
2022-08-31T10:28:43.556Z,38.23
2022-08-31T10:31:31.838Z,38.31
2022-08-31T10:34:50.884Z,37.61
2022-08-31T10:37:31.685Z,37.02
2022-08-31T10:40:43.004Z,37.05
2022-08-31T10:43:33.196Z,36.81
2022-08-31T10:46:17.779Z,37.06
2022-08-31T10:48:55.147Z,37.19
2022-08-31T10:51:47.815Z,38.32
2022-08-31T10:54:29.289Z,38.46
2022-08-31T10:57:22.391Z,38.81
2022-08-31T11:00:03.684Z,39.33
2022-08-31T11:02:57.518Z,39.22
2022-08-31T11:05:36.403Z,39.25
2022-08-31T11:08:57.746Z,39.51
2022-08-31T11:11:57.720Z,39.36
2022-08-31T11:14:39.905Z,39.18
2022-08-31T11:17:51.990Z,40.07
2022-08-31T11:20:40.063Z,40.65
2022-08-31T11:23:28.161Z,40.57
2022-08-31T11:26:29.153Z,40.14
2022-08-31T11:29:15.448Z,40.89
2022-08-31T11:31:50.524Z,40.42
2022-08-31T11:34:47.608Z,39.94
2022-08-31T11:37:51.258Z,40.79
2022-08-31T11:40:44.801Z,40.27
2022-08-31T11:43:31.551Z,39.57
2022-08-31T11:46:41.810Z,39.22
2022-08-31T11:49:39.953Z,39.38
2022-08-31T11:52:30.066Z,39.03
2022-08-31T11:55:17.654Z,38.51
2022-08-31T11:58:12.422Z,38.49
2022-08-31T12:00:58.911Z,37.43
2022-08-31T12:03:44.692Z,36.52
2022-08-31T12:06:38.133Z,37.06
2022-08-31T12:09:24.265Z,37.85
2022-08-31T12:12:07.712Z,37.94
2022-08-31T12:14:35.703Z,38.29
2022-08-31T12:17:33.174Z,38.31
2022-08-31T12:20:23.389Z,37.94
2022-08-31T12:23:40.876Z,37.82
2022-08-31T12:27:01.392Z,37.49
2022-08-31T12:29:44.220Z,37.19
2022-08-31T12:32:40.010Z,37.88
2022-08-31T12:35:16.216Z,38.21
2022-08-31T12:37:58.820Z,37.27
2022-08-31T12:40:33.872Z,37.25
2022-08-31T12:43:24.231Z,37.49
2022-08-31T12:46:17.093Z,36.70
2022-08-31T12:49:16.997Z,36.51
2022-08-31T12:52:15.632Z,36.55
2022-08-31T12:55:04.465Z,37.30
2022-08-31T12:58:02.251Z,37.59
2022-08-31T13:00:42.492Z,36.93
2022-08-31T13:03:29.346Z,37.56
2022-08-31T13:06:12.423Z,37.87
2022-08-31T13:08:52.146Z,37.91
2022-08-31T13:11:39.919Z,37.86
2022-08-31T13:14:27.044Z,37.78
2022-08-31T13:17:03.762Z,37.33
2022-08-31T13:19:42.019Z,37.86
2022-08-31T13:22:17.734Z,37.96
2022-08-31T13:24:53.969Z,37.82
2022-08-31T13:27:30.095Z,38.88
2022-08-31T13:30:14.828Z,38.47
2022-08-31T13:32:57.645Z,37.90
2022-08-31T13:35:38.199Z,38.07
2022-08-31T13:38:12.057Z,38.99
2022-08-31T13:40:52.569Z,39.51
2022-08-31T13:43:27.895Z,39.54
2022-08-31T13:46:04.452Z,39.86
2022-08-31T13:48:43.571Z,39.57
2022-08-31T13:51:22.082Z,39.30
2022-08-31T13:53:55.875Z,38.75
2022-08-31T13:56:51.490Z,39.00
2022-08-31T13:59:25.440Z,38.70
2022-08-31T14:02:07.746Z,38.21
2022-08-31T14:04:58.215Z,37.21
2022-08-31T14:07:45.855Z,37.17
2022-08-31T14:10:46.669Z,38.24
2022-08-31T14:13:14.778Z,38.54
2022-08-31T14:16:03.137Z,39.28
2022-08-31T14:18:40.564Z,39.38
2022-08-31T14:21:24.615Z,39.61
2022-08-31T14:24:10.560Z,40.00
2022-08-31T14:26:52.410Z,40.56
2022-08-31T14:29:34.373Z,40.76
2022-08-31T14:32:18.953Z,40.69
2022-08-31T14:34:56.471Z,40.63
2022-08-31T14:37:33.228Z,41.05
2022-08-31T14:40:14.282Z,40.90
2022-08-31T14:42:51.232Z,41.66
2022-08-31T14:45:24.681Z,41.57
2022-08-31T14:48:00.330Z,40.83
2022-08-31T14:50:31.876Z,41.02
2022-08-31T14:53:14.434Z,41.63
2022-08-31T14:55:56.586Z,41.16
2022-08-31T14:58:41.549Z,41.17
2022-08-31T15:01:23.112Z,41.44
2022-08-31T15:03:56.371Z,41.52
2022-08-31T15:06:29.982Z,41.74
2022-08-31T15:09:07.646Z,41.31
2022-08-31T15:11:41.233Z,41.67
2022-08-31T15:14:14.670Z,41.92
2022-08-31T15:16:54.961Z,42.32
2022-08-31T15:19:29.028Z,42.12
2022-08-31T15:22:05.767Z,42.54
2022-08-31T15:24:54.031Z,42.12
2022-08-31T15:27:31.846Z,42.18
2022-08-31T15:30:11.826Z,42.78
2022-08-31T15:32:46.945Z,42.35
2022-08-31T15:35:30.351Z,42.45
2022-08-31T15:38:10.660Z,42.56
2022-08-31T15:40:41.184Z,42.38
2022-08-31T15:43:21.501Z,42.61
2022-08-31T15:46:05.138Z,42.46
2022-08-31T15:48:45.976Z,42.32
2022-08-31T15:51:28.073Z,43.00
2022-08-31T15:54:21.705Z,42.83
2022-08-31T15:56:58.752Z,42.97
2022-08-31T15:59:35.123Z,43.40
2022-08-31T16:02:09.305Z,42.78
2022-08-31T16:04:46.298Z,42.93
2022-08-31T16:07:24.874Z,43.20
2022-08-31T16:09:53.107Z,43.56
2022-08-31T16:12:24.115Z,43.11
2022-08-31T16:14:55.339Z,42.85
2022-08-31T16:17:33.265Z,43.23
2022-08-31T16:20:04.743Z,42.45
2022-08-31T16:22:47.160Z,42.21
2022-08-31T16:25:17.744Z,42.34
2022-08-31T16:27:57.733Z,42.39
2022-08-31T16:30:32.531Z,41.91
2022-08-31T16:33:05.530Z,41.38
2022-08-31T16:35:40.086Z,41.05
2022-08-31T16:38:13.423Z,41.02
2022-08-31T16:40:53.198Z,41.18
2022-08-31T16:43:21.868Z,40.73
2022-08-31T16:45:55.531Z,41.04
2022-08-31T16:48:45.948Z,40.83
2022-08-31T16:51:18.223Z,40.84
2022-08-31T16:53:54.969Z,40.59
2022-08-31T16:56:29.048Z,40.44
2022-08-31T16:59:00.894Z,40.48
2022-08-31T17:01:34.086Z,40.22
2022-08-31T17:04:48.251Z,40.28
2022-08-31T17:07:19.836Z,40.32
2022-08-31T17:09:47.975Z,39.97
2022-08-31T17:12:19.299Z,39.98
2022-08-31T17:14:52.497Z,39.92
2022-08-31T17:17:25.589Z,39.78
2022-08-31T17:19:55.830Z,40.11
2022-08-31T17:22:31.676Z,39.56
2022-08-31T17:25:04.734Z,39.70
2022-08-31T17:27:34.650Z,39.78
2022-08-31T17:30:07.960Z,39.48
2022-08-31T17:32:45.192Z,39.63
2022-08-31T17:35:19.308Z,39.58
2022-08-31T17:37:50.086Z,39.37
2022-08-31T17:40:18.349Z,39.44
2022-08-31T17:42:46.346Z,39.29
2022-08-31T17:45:15.638Z,39.37
2022-08-31T17:47:46.407Z,39.67
2022-08-31T17:50:20.136Z,39.28
2022-08-31T17:52:50.249Z,39.28
2022-08-31T17:55:20.472Z,39.38
2022-08-31T17:57:51.187Z,39.54
2022-08-31T18:00:24.069Z,39.12
2022-08-31T18:02:57.110Z,39.14
2022-08-31T18:05:27.816Z,38.96
2022-08-31T18:07:58.092Z,39.26
2022-08-31T18:10:32.012Z,38.75
2022-08-31T18:13:03.371Z,38.67
2022-08-31T18:15:33.979Z,38.96
2022-08-31T18:18:04.989Z,38.83
2022-08-31T18:20:41.196Z,38.90
2022-08-31T18:23:17.262Z,38.70
2022-08-31T18:25:49.865Z,38.54
2022-08-31T18:28:23.465Z,38.90
2022-08-31T18:31:04.284Z,38.81
2022-08-31T18:33:33.216Z,38.40
2022-08-31T18:36:10.613Z,38.54
2022-08-31T18:38:43.976Z,38.81
2022-08-31T18:41:31.862Z,38.39
2022-08-31T18:44:20.803Z,38.63
2022-08-31T18:46:51.318Z,38.64
2022-08-31T18:49:22.226Z,38.67
2022-08-31T18:51:57.118Z,38.49
2022-08-31T18:54:24.934Z,38.73
2022-08-31T18:56:55.849Z,38.37
2022-08-31T18:59:24.441Z,38.26
2022-08-31T19:01:55.061Z,38.27
2022-08-31T19:04:25.799Z,38.37
2022-08-31T19:06:58.200Z,38.33
2022-08-31T19:09:32.790Z,38.12
2022-08-31T19:12:05.007Z,38.23
2022-08-31T19:14:40.727Z,38.52
2022-08-31T19:17:12.515Z,38.23
2022-08-31T19:19:43.161Z,38.41
2022-08-31T19:22:12.566Z,38.35
2022-08-31T19:24:46.136Z,38.34
2022-08-31T19:27:18.122Z,38.04
2022-08-31T19:29:51.028Z,38.13
2022-08-31T19:32:18.638Z,38.06
2022-08-31T19:34:50.220Z,37.98
2022-08-31T19:37:23.388Z,38.03
2022-08-31T19:39:54.032Z,38.15
2022-08-31T19:42:59.637Z,38.17
2022-08-31T19:45:23.921Z,38.28
2022-08-31T19:48:01.179Z,38.24
2022-08-31T19:50:34.984Z,38.33
2022-08-31T19:53:06.331Z,37.84
2022-08-31T19:55:36.341Z,38.13
2022-08-31T19:58:10.063Z,38.13
2022-08-31T20:00:40.753Z,38.07
2022-08-31T20:03:13.437Z,37.87
2022-08-31T20:05:43.223Z,38.06
2022-08-31T20:08:17.115Z,38.17
2022-08-31T20:10:46.538Z,38.07
2022-08-31T20:13:25.253Z,37.95
2022-08-31T20:15:59.109Z,38.30
2022-08-31T20:18:41.813Z,38.10
2022-08-31T20:21:18.241Z,38.08
2022-08-31T20:24:03.428Z,37.79
2022-08-31T20:26:36.386Z,37.79
2022-08-31T20:29:10.861Z,37.90
2022-08-31T20:31:45.032Z,38.06
2022-08-31T20:34:21.829Z,38.24
2022-08-31T20:36:58.540Z,37.92
2022-08-31T20:39:32.477Z,38.07
2022-08-31T20:42:07.163Z,37.73
2022-08-31T20:44:41.151Z,38.12
2022-08-31T20:47:31.764Z,38.10
2022-08-31T20:50:06.926Z,37.78
2022-08-31T20:52:39.168Z,37.67
2022-08-31T20:55:12.422Z,37.54
2022-08-31T20:57:41.373Z,37.83
2022-08-31T21:00:14.777Z,37.65
2022-08-31T21:02:49.923Z,37.82
2022-08-31T21:08:15.987Z,37.54
2022-08-31T21:10:46.492Z,37.55
2022-08-31T21:13:18.359Z,37.63
2022-08-31T21:15:48.619Z,37.31
2022-08-31T21:18:17.522Z,37.19
2022-08-31T21:20:56.955Z,36.98
2022-08-31T21:23:32.107Z,37.01
2022-08-31T21:26:10.702Z,36.66
2022-08-31T21:28:40.380Z,36.57
2022-08-31T21:31:16.543Z,36.54
2022-08-31T21:34:02.150Z,36.51
2022-08-31T21:36:35.799Z,36.69
2022-08-31T21:39:07.249Z,36.36
2022-08-31T21:41:39.382Z,36.19
2022-08-31T21:44:16.503Z,36.27
2022-08-31T21:46:51.568Z,36.25
2022-08-31T21:49:26.655Z,36.11
2022-08-31T21:51:59.936Z,36.18
2022-08-31T21:54:30.650Z,35.90
2022-08-31T21:57:04.244Z,35.92
2022-08-31T21:59:36.241Z,36.25
2022-08-31T22:02:11.206Z,36.40
2022-08-31T22:04:44.610Z,36.53
2022-08-31T22:07:15.565Z,36.65
2022-08-31T22:09:47.031Z,36.73
2022-08-31T22:12:18.421Z,37.19
2022-08-31T22:14:52.184Z,36.76
2022-08-31T22:17:48.247Z,36.91
2022-08-31T22:20:22.216Z,37.30
2022-08-31T22:22:56.094Z,36.98
2022-08-31T22:25:30.286Z,37.23
2022-08-31T22:28:10.304Z,37.29
2022-08-31T22:30:41.480Z,37.02
2022-08-31T22:33:15.725Z,36.96
2022-08-31T22:35:53.841Z,37.50
2022-08-31T22:38:21.432Z,37.57
2022-08-31T22:40:50.703Z,37.12
2022-08-31T22:43:24.221Z,37.44
2022-08-31T22:45:51.783Z,37.57
2022-08-31T22:48:22.208Z,37.52
2022-08-31T22:50:51.369Z,37.42
2022-08-31T22:53:25.540Z,37.18
2022-08-31T22:55:56.109Z,37.54
2022-08-31T22:58:26.513Z,37.16
2022-08-31T23:00:57.438Z,37.10
2022-08-31T23:03:27.178Z,37.42
2022-08-31T23:06:01.419Z,37.45
2022-08-31T23:08:32.508Z,37.26
2022-08-31T23:11:02.927Z,37.63
2022-08-31T23:13:54.866Z,37.34
2022-08-31T23:16:30.175Z,37.73
2022-08-31T23:19:05.025Z,37.52
2022-08-31T23:21:43.221Z,37.88
2022-08-31T23:24:16.916Z,37.52
2022-08-31T23:26:46.176Z,38.01
2022-08-31T23:29:20.024Z,38.02
2022-08-31T23:31:53.852Z,37.69
2022-08-31T23:34:24.203Z,38.02
2022-08-31T23:36:53.348Z,38.26
2022-08-31T23:39:26.306Z,37.79
2022-08-31T23:41:56.494Z,37.87
2022-08-31T23:44:30.202Z,38.06
2022-08-31T23:47:06.373Z,37.86
2022-08-31T23:49:38.449Z,37.76
2022-08-31T23:52:06.954Z,37.78
2022-08-31T23:54:38.479Z,37.82
2022-08-31T23:57:31.564Z,38.01
